Time;durP1;ratioP1;P1;durP2;ratioP2;P2;SDS_P1;SDS_P2;PMS_P1;PMS_P2;Temp;Humidity;BMP_temperature;BMP_pressure;BME280_temperature;BME280_humidity;BME280_pressure;Samples;Min_cycle;Max_cycle;Signal;HPM_P1;HPM_P2
2023/05/03 00:00:11;;;;;;;1.50;1.27;;;7.20;98.20;;;;;;5093367;28;20480;-78
2023/05/03 00:02:40;;;;;;;1.50;1.30;;;7.20;98.20;;;;;;5068974;28;20542;-77
2023/05/03 00:05:11;;;;;;;1.50;1.20;;;7.20;98.20;;;;;;5088573;28;20472;-78
2023/05/03 00:07:39;;;;;;;1.50;1.30;;;7.20;98.20;;;;;;5069016;28;20480;-77
2023/05/03 00:10:07;;;;;;;1.50;1.30;;;7.10;98.20;;;;;;5093218;28;20445;-78
2023/05/03 00:12:35;;;;;;;1.50;1.30;;;7.10;98.20;;;;;;5064872;28;20565;-77
2023/05/03 00:15:02;;;;;;;1.50;1.20;;;7.10;98.20;;;;;;5089775;28;20463;-78
2023/05/03 00:17:28;;;;;;;1.50;1.20;;;7.00;98.20;;;;;;5069745;28;20496;-78
2023/05/03 00:19:55;;;;;;;1.50;1.20;;;7.00;98.20;;;;;;5092999;28;20491;-78
2023/05/03 00:22:22;;;;;;;1.50;1.30;;;7.00;98.20;;;;;;5071582;28;20488;-78
2023/05/03 00:24:50;;;;;;;1.53;1.40;;;6.90;98.20;;;;;;5098202;28;20849;-77
2023/05/03 00:27:17;;;;;;;1.50;1.10;;;6.90;98.20;;;;;;5072078;28;20505;-77
2023/05/03 00:29:45;;;;;;;1.50;1.30;;;6.90;98.20;;;;;;5092085;28;20482;-77
2023/05/03 00:32:12;;;;;;;2.93;2.63;;;6.80;98.20;;;;;;5069554;28;20481;-78
2023/05/03 00:34:39;;;;;;;1.57;1.30;;;6.80;98.20;;;;;;5091185;28;20464;-77
2023/05/03 00:37:06;;;;;;;1.50;1.30;;;6.80;98.20;;;;;;5074289;28;20477;-77
2023/05/03 00:39:32;;;;;;;1.70;1.60;;;6.80;98.20;;;;;;5092786;28;20499;-77
2023/05/03 00:42:00;;;;;;;1.50;1.27;;;6.70;98.20;;;;;;5072398;28;20487;-77
2023/05/03 00:44:27;;;;;;;1.50;1.30;;;6.70;98.20;;;;;;5087248;28;20487;-77
2023/05/03 00:46:56;;;;;;;1.50;1.30;;;6.70;98.20;;;;;;5074781;28;20489;-77
2023/05/03 00:49:24;;;;;;;1.50;1.30;;;6.70;98.20;;;;;;5086685;28;20467;-77
2023/05/03 00:51:52;;;;;;;1.50;1.30;;;6.60;98.20;;;;;;5077187;28;20968;-78
2023/05/03 00:54:20;;;;;;;1.50;1.20;;;6.60;98.20;;;;;;5087346;28;20453;-77
2023/05/03 00:56:47;;;;;;;1.57;1.30;;;6.60;98.20;;;;;;5075405;28;20472;-78
2023/05/03 00:59:14;;;;;;;1.50;1.30;;;6.50;98.20;;;;;;5086264;28;20476;-77
2023/05/03 01:01:41;;;;;;;1.50;1.20;;;6.50;98.20;;;;;;5079854;28;20480;-78
2023/05/03 01:04:09;;;;;;;1.50;1.30;;;6.50;98.20;;;;;;5086257;28;20463;-77
2023/05/03 01:06:43;;;;;;;1.50;1.20;;;6.40;98.20;;;;;;5080231;28;20477;-77
2023/05/03 01:09:21;;;;;;;1.50;1.20;;;6.40;98.20;;;;;;5079662;28;20476;-78
2023/05/03 01:11:58;;;;;;;1.50;1.30;;;6.40;98.20;;;;;;5073488;28;20855;-77
2023/05/03 01:14:36;;;;;;;1.50;1.23;;;6.40;98.20;;;;;;5080252;28;20940;-77
2023/05/03 01:17:08;;;;;;;1.57;1.40;;;6.40;98.20;;;;;;5073642;28;20488;-77
2023/05/03 01:19:43;;;;;;;1.50;1.20;;;6.30;98.20;;;;;;5090022;28;20555;-77
2023/05/03 01:22:17;;;;;;;1.50;1.20;;;6.30;98.20;;;;;;5069572;28;20783;-78
2023/05/03 01:24:51;;;;;;;1.57;1.30;;;6.30;98.20;;;;;;5094944;28;21067;-78
2023/05/03 01:27:19;;;;;;;1.53;1.40;;;6.30;98.20;;;;;;5072935;28;20870;-78
2023/05/03 01:29:45;;;;;;;1.50;1.30;;;6.20;98.20;;;;;;5095173;28;20475;-78
2023/05/03 01:32:20;;;;;;;1.50;1.30;;;6.20;98.20;;;;;;5073467;28;20481;-78
2023/05/03 01:34:54;;;;;;;1.50;1.30;;;6.20;98.20;;;;;;5088747;28;20830;-78
2023/05/03 01:37:21;;;;;;;1.57;1.30;;;6.10;98.20;;;;;;5071661;28;20477;-78
2023/05/03 01:39:54;;;;;;;1.50;1.30;;;6.10;98.20;;;;;;5095648;28;20850;-78
2023/05/03 01:42:24;;;;;;;1.50;1.30;;;6.10;98.20;;;;;;5070900;28;20515;-78
2023/05/03 01:44:53;;;;;;;1.50;1.30;;;6.10;98.20;;;;;;5069457;28;20976;-77
2023/05/03 01:47:20;;;;;;;1.53;1.33;;;6.10;98.20;;;;;;5064494;28;20478;-77
2023/05/03 01:49:47;;;;;;;1.50;1.30;;;6.00;98.20;;;;;;5082622;28;20488;-77
2023/05/03 01:52:14;;;;;;;1.50;1.23;;;6.00;98.20;;;;;;5084729;28;20484;-78
2023/05/03 01:54:41;;;;;;;1.60;1.50;;;6.00;98.20;;;;;;5086988;28;20960;-78
2023/05/03 01:57:08;;;;;;;1.57;1.30;;;6.00;98.20;;;;;;5080693;28;20787;-78
2023/05/03 01:59:36;;;;;;;1.50;1.30;;;5.90;98.20;;;;;;5089430;28;20477;-77
2023/05/03 02:02:03;;;;;;;1.57;1.33;;;5.90;98.20;;;;;;5078287;28;20565;-78
2023/05/03 02:04:30;;;;;;;1.57;1.40;;;5.80;98.20;;;;;;5086792;28;20473;-78
2023/05/03 02:06:56;;;;;;;1.53;1.30;;;5.80;98.20;;;;;;5077588;28;20472;-77
2023/05/03 02:09:25;;;;;;;1.50;1.40;;;5.80;98.20;;;;;;5090303;28;20484;-78
2023/05/03 02:11:52;;;;;;;1.60;1.40;;;5.80;98.20;;;;;;5080569;28;20475;-78
2023/05/03 02:14:18;;;;;;;1.50;1.30;;;5.70;98.20;;;;;;5096036;28;20461;-78
2023/05/03 02:16:47;;;;;;;1.50;1.30;;;5.70;98.20;;;;;;5076589;28;20471;-77
2023/05/03 02:19:14;;;;;;;1.50;1.30;;;5.70;98.20;;;;;;5092401;28;20568;-78
2023/05/03 02:21:41;;;;;;;1.50;1.40;;;5.70;98.20;;;;;;5079163;28;20537;-77
2023/05/03 02:24:08;;;;;;;1.50;1.30;;;5.70;98.20;;;;;;5098825;23;20511;-79
2023/05/03 02:26:34;;;;;;;1.50;1.40;;;5.60;98.20;;;;;;5068802;28;20498;-79
2023/05/03 02:29:01;;;;;;;1.53;1.30;;;5.60;98.20;;;;;;5083946;28;20466;-80
2023/05/03 02:31:28;;;;;;;1.50;1.30;;;5.60;98.20;;;;;;5057784;28;20480;-79
2023/05/03 02:33:56;;;;;;;1.53;1.30;;;5.60;98.20;;;;;;5076465;28;20501;-80
2023/05/03 02:36:26;;;;;;;1.80;1.70;;;5.60;98.20;;;;;;5049974;28;20683;-80
2023/05/03 02:38:53;;;;;;;1.60;1.50;;;5.50;98.20;;;;;;5082168;28;20462;-79
2023/05/03 02:41:23;;;;;;;1.60;1.50;;;5.50;98.20;;;;;;5050964;28;20559;-80
2023/05/03 02:43:50;;;;;;;1.60;1.30;;;5.50;98.20;;;;;;5083064;28;20474;-79
2023/05/03 02:46:16;;;;;;;1.60;1.37;;;5.50;98.20;;;;;;5048969;28;20469;-79
2023/05/03 02:48:43;;;;;;;1.60;1.50;;;5.50;98.20;;;;;;5084288;28;20477;-79
2023/05/03 02:51:11;;;;;;;1.53;1.30;;;5.50;98.20;;;;;;5046432;28;20484;-79
2023/05/03 02:53:38;;;;;;;1.50;1.30;;;5.40;98.20;;;;;;5069999;28;20495;-79
2023/05/03 02:56:05;;;;;;;1.50;1.30;;;5.40;98.20;;;;;;5045543;28;20512;-79
2023/05/03 02:58:32;;;;;;;1.50;1.40;;;5.40;98.20;;;;;;5082567;28;20457;-80
2023/05/03 03:00:58;;;;;;;1.50;1.30;;;5.40;98.20;;;;;;5044763;28;20458;-79
2023/05/03 03:03:25;;;;;;;1.50;1.30;;;5.40;98.20;;;;;;5085407;28;20530;-79
2023/05/03 03:05:52;;;;;;;1.50;1.30;;;5.40;98.20;;;;;;5041076;28;20516;-79
2023/05/03 03:08:20;;;;;;;1.50;1.30;;;5.30;98.20;;;;;;5053133;28;20455;-79
2023/05/03 03:10:47;;;;;;;1.60;1.30;;;5.30;98.20;;;;;;5051986;28;20478;-79
2023/05/03 03:13:14;;;;;;;1.60;1.40;;;5.30;98.20;;;;;;5060597;28;20475;-81
2023/05/03 03:15:41;;;;;;;1.53;1.30;;;5.30;98.20;;;;;;5050143;28;20554;-79
2023/05/03 03:18:07;;;;;;;1.60;1.43;;;5.30;98.20;;;;;;5072126;28;20488;-80
2023/05/03 03:20:34;;;;;;;1.53;1.30;;;5.20;98.20;;;;;;5048320;28;20454;-80
2023/05/03 03:23:01;;;;;;;1.50;1.30;;;5.20;98.20;;;;;;5074632;28;20492;-79
2023/05/03 03:25:29;;;;;;;1.50;1.30;;;5.20;98.20;;;;;;5042968;28;20636;-79
2023/05/03 03:27:56;;;;;;;1.60;1.50;;;5.20;98.20;;;;;;5052806;28;20473;-79
2023/05/03 03:30:23;;;;;;;1.53;1.30;;;5.20;98.20;;;;;;5048724;28;20501;-80
2023/05/03 03:32:50;;;;;;;1.50;1.30;;;5.20;98.20;;;;;;5044739;28;20483;-80
2023/05/03 03:35:17;;;;;;;1.50;1.40;;;5.10;98.20;;;;;;5049362;28;20463;-79
2023/05/03 03:37:44;;;;;;;1.50;1.40;;;5.10;98.20;;;;;;5048580;28;20477;-79
2023/05/03 03:40:12;;;;;;;1.57;1.30;;;5.10;98.20;;;;;;5049624;28;20466;-81
2023/05/03 03:42:40;;;;;;;1.60;1.40;;;5.10;98.20;;;;;;5048808;28;20494;-79
2023/05/03 03:45:08;;;;;;;1.50;1.30;;;5.10;98.20;;;;;;5045133;28;20463;-79
2023/05/03 03:47:35;;;;;;;1.50;1.40;;;5.10;98.20;;;;;;5052479;28;20484;-79
2023/05/03 03:50:02;;;;;;;1.57;1.30;;;5.10;98.20;;;;;;5050383;28;20458;-80
2023/05/03 03:52:29;;;;;;;1.60;1.40;;;5.10;98.20;;;;;;5052276;28;20477;-78
2023/05/03 03:54:56;;;;;;;1.53;1.30;;;5.10;98.20;;;;;;5059747;28;20454;-80
2023/05/03 03:57:24;;;;;;;1.60;1.50;;;5.20;98.20;;;;;;5051235;28;20486;-82
2023/05/03 03:59:52;;;;;;;1.53;1.30;;;5.20;98.20;;;;;;5057538;28;20453;-80
2023/05/03 04:02:20;;;;;;;1.53;1.37;;;5.20;98.20;;;;;;5052395;28;20532;-80
2023/05/03 04:04:46;;;;;;;1.50;1.30;;;5.20;98.20;;;;;;5053007;28;20546;-79
2023/05/03 04:07:13;;;;;;;1.50;1.30;;;5.20;98.20;;;;;;5050842;28;20486;-79
2023/05/03 04:09:40;;;;;;;1.50;1.40;;;5.20;98.20;;;;;;5053749;28;20466;-81
2023/05/03 04:12:07;;;;;;;1.60;1.40;;;5.10;98.20;;;;;;5047665;28;20488;-80
2023/05/03 04:14:34;;;;;;;1.57;1.40;;;5.10;98.20;;;;;;5057648;28;20486;-80
2023/05/03 04:17:03;;;;;;;1.50;1.30;;;5.10;98.20;;;;;;5052388;28;20995;-79
2023/05/03 04:19:31;;;;;;;1.50;1.30;;;5.10;98.20;;;;;;5057132;28;20524;-79
2023/05/03 04:21:57;;;;;;;1.50;1.30;;;5.10;98.20;;;;;;5054870;28;20480;-78
2023/05/03 04:24:24;;;;;;;1.50;1.20;;;5.10;98.20;;;;;;5060272;28;20496;-80
2023/05/03 04:26:51;;;;;;;1.50;1.37;;;5.10;98.20;;;;;;5050333;28;20992;-80
2023/05/03 04:29:18;;;;;;;1.60;1.40;;;5.20;98.20;;;;;;5060295;28;20500;-78
2023/05/03 04:31:45;;;;;;;1.50;1.30;;;5.20;98.20;;;;;;5048350;28;20473;-79
2023/05/03 04:34:14;;;;;;;1.60;1.50;;;5.20;98.20;;;;;;5058021;28;21060;-79
2023/05/03 04:36:44;;;;;;;1.57;1.30;;;5.20;98.20;;;;;;5045963;28;20481;-79
2023/05/03 04:39:14;;;;;;;1.53;1.40;;;5.30;98.20;;;;;;5062266;28;20530;-80
2023/05/03 04:41:41;;;;;;;1.57;1.30;;;5.30;98.20;;;;;;5048567;28;21007;-80
2023/05/03 04:44:08;;;;;;;1.60;1.40;;;5.30;98.20;;;;;;5058051;28;20478;-81
2023/05/03 04:46:35;;;;;;;1.50;1.30;;;5.40;98.20;;;;;;5046154;28;20573;-78
2023/05/03 04:49:02;;;;;;;1.60;1.50;;;5.40;98.20;;;;;;5058299;28;20458;-79
2023/05/03 04:51:30;;;;;;;1.50;1.30;;;5.40;98.20;;;;;;5048201;28;20477;-78
2023/05/03 04:53:59;;;;;;;1.50;1.40;;;5.50;98.20;;;;;;5058238;28;20480;-85
2023/05/03 04:56:34;;;;;;;1.57;1.30;;;5.50;98.20;;;;;;5053375;28;20473;-76
2023/05/03 04:59:01;;;;;;;1.57;1.40;;;5.50;98.20;;;;;;5065480;28;20492;-78
2023/05/03 05:01:28;;;;;;;1.57;1.40;;;5.50;98.20;;;;;;5047238;28;20477;-80
2023/05/03 05:03:55;;;;;;;1.50;1.27;;;5.50;98.20;;;;;;5057432;28;20482;-79
2023/05/03 05:06:22;;;;;;;1.53;1.30;;;5.60;98.20;;;;;;5045005;28;20470;-79
2023/05/03 05:08:50;;;;;;;1.53;1.40;;;5.60;98.20;;;;;;5056599;28;20454;-77
2023/05/03 05:11:17;;;;;;;1.57;1.40;;;5.70;98.20;;;;;;5042476;28;20518;-78
2023/05/03 05:13:44;;;;;;;1.50;1.30;;;5.80;98.20;;;;;;5057842;28;21043;-80
2023/05/03 05:16:11;;;;;;;1.60;1.40;;;6.00;98.20;;;;;;5044152;28;20490;-82
2023/05/03 05:18:38;;;;;;;1.50;1.30;;;6.20;98.20;;;;;;5064194;28;20956;-80
2023/05/03 05:21:05;;;;;;;1.50;1.30;;;6.40;98.20;;;;;;5043153;28;20455;-77
2023/05/03 05:23:31;;;;;;;1.50;1.30;;;6.50;98.20;;;;;;5056516;28;20493;-80
2023/05/03 05:26:00;;;;;;;1.53;1.30;;;6.70;98.20;;;;;;5043748;28;20657;-83
2023/05/03 05:28:27;;;;;;;1.50;1.20;;;6.90;98.20;;;;;;5060863;28;20454;-80
2023/05/03 05:30:54;;;;;;;1.50;1.30;;;7.00;98.20;;;;;;5042060;28;20486;-79
2023/05/03 05:33:20;;;;;;;1.50;1.20;;;7.20;98.20;;;;;;5056980;28;20475;-83
2023/05/03 05:35:49;;;;;;;1.60;1.40;;;7.40;98.20;;;;;;5041727;28;21030;-80
2023/05/03 05:38:17;;;;;;;7.63;3.00;;;7.60;98.20;;;;;;5058235;28;20927;-79
2023/05/03 05:40:44;;;;;;;1.53;1.30;;;7.80;98.20;;;;;;5053448;28;20465;-78
2023/05/03 05:43:12;;;;;;;1.50;1.20;;;8.10;98.20;;;;;;5038992;28;20478;-82
2023/05/03 05:45:39;;;;;;;1.50;1.20;;;8.30;98.20;;;;;;5051986;28;20982;-84
2023/05/03 05:48:06;;;;;;;1.50;1.20;;;8.50;98.20;;;;;;5051301;28;20540;-80
2023/05/03 05:50:34;;;;;;;1.50;1.30;;;8.50;98.20;;;;;;5050630;28;20900;-78
2023/05/03 05:53:01;;;;;;;1.50;1.30;;;8.60;98.20;;;;;;5047413;28;20508;-79
2023/05/03 05:55:28;;;;;;;1.50;1.20;;;8.70;98.20;;;;;;5050095;28;20463;-82
2023/05/03 05:57:55;;;;;;;1.50;1.17;;;9.00;98.20;;;;;;5047911;28;20480;-81
2023/05/03 06:00:23;;;;;;;1.50;1.20;;;9.20;98.20;;;;;;5049569;28;20466;-83
2023/05/03 06:02:50;;;;;;;1.50;1.20;;;9.30;98.20;;;;;;5052050;28;20506;-82
2023/05/03 06:05:17;;;;;;;1.50;1.33;;;9.30;98.00;;;;;;5053980;28;20624;-78
2023/05/03 06:07:44;;;;;;;1.50;1.20;;;9.60;98.20;;;;;;5057342;28;20482;-83
2023/05/03 06:10:11;;;;;;;1.50;1.10;;;9.80;98.20;;;;;;5052769;28;20469;-78
2023/05/03 06:12:38;;;;;;;1.50;1.17;;;10.10;97.20;;;;;;5052731;28;21081;-79
2023/05/03 06:15:06;;;;;;;1.50;1.20;;;10.30;96.40;;;;;;5049189;28;20472;-79
2023/05/03 06:17:34;;;;;;;1.50;1.10;;;10.60;95.70;;;;;;5044578;28;20470;-78
2023/05/03 06:20:01;;;;;;;1.50;1.10;;;10.70;94.10;;;;;;5052621;28;20546;-81
2023/05/03 06:22:28;;;;;;;1.50;1.10;;;10.70;93.60;;;;;;5052317;28;20481;-80
2023/05/03 06:24:55;;;;;;;1.50;1.10;;;10.70;94.00;;;;;;5053054;28;20458;-79
2023/05/03 06:27:23;;;;;;;1.50;1.00;;;10.90;94.40;;;;;;5063983;28;20468;-80
2023/05/03 06:29:50;;;;;;;1.50;1.10;;;11.00;93.40;;;;;;5059689;28;20484;-81
2023/05/03 06:32:17;;;;;;;1.50;1.10;;;10.80;92.90;;;;;;5053011;28;20477;-80
2023/05/03 06:34:45;;;;;;;1.50;1.10;;;10.90;93.60;;;;;;5054432;28;21052;-81
2023/05/03 06:37:12;;;;;;;1.50;1.00;;;11.00;95.00;;;;;;5048577;28;20477;-80
2023/05/03 06:39:39;;;;;;;1.50;1.10;;;11.10;94.30;;;;;;5058788;28;20462;-80
2023/05/03 06:42:06;;;;;;;1.50;1.10;;;11.50;94.10;;;;;;5047384;28;20485;-80
2023/05/03 06:44:33;;;;;;;1.50;1.00;;;11.90;93.10;;;;;;5054972;28;20471;-77
2023/05/03 06:47:00;;;;;;;1.50;1.10;;;12.10;90.70;;;;;;5064039;28;20477;-77
2023/05/03 06:49:27;;;;;;;1.50;1.10;;;12.10;91.30;;;;;;5062437;28;20465;-78
2023/05/03 06:51:55;;;;;;;1.50;1.00;;;12.20;89.70;;;;;;5047098;28;20476;-77
2023/05/03 06:54:22;;;;;;;1.50;1.00;;;12.20;90.50;;;;;;5054068;28;20496;-78
2023/05/03 06:56:48;;;;;;;1.50;1.00;;;12.20;88.30;;;;;;5044234;28;20490;-80
2023/05/03 06:59:16;;;;;;;1.50;1.10;;;12.10;89.40;;;;;;5052328;28;20813;-78
2023/05/03 07:01:43;;;;;;;1.50;1.00;;;12.40;90.30;;;;;;5043715;28;20480;-78
2023/05/03 07:04:10;;;;;;;1.50;0.97;;;12.80;90.10;;;;;;5054758;28;20474;-81
2023/05/03 07:06:37;;;;;;;1.50;1.00;;;13.00;89.00;;;;;;5048879;28;20477;-79
2023/05/03 07:09:06;;;;;;;1.47;1.00;;;13.10;84.70;;;;;;5056852;28;20463;-81
2023/05/03 07:11:33;;;;;;;1.50;1.00;;;13.10;84.30;;;;;;5049074;28;20489;-78
2023/05/03 07:14:00;;;;;;;1.50;1.00;;;13.10;83.30;;;;;;5061063;28;20986;-82
2023/05/03 07:16:27;;;;;;;1.50;1.10;;;13.00;83.20;;;;;;5043881;28;20478;-80
2023/05/03 07:18:53;;;;;;;1.50;1.00;;;13.00;84.20;;;;;;5060538;28;20461;-77
2023/05/03 07:21:20;;;;;;;1.50;1.00;;;13.20;83.80;;;;;;5046569;28;20544;-82
2023/05/03 07:23:47;;;;;;;1.47;1.00;;;13.10;83.20;;;;;;5061051;28;20806;-79
2023/05/03 07:26:15;;;;;;;1.47;0.93;;;13.20;83.70;;;;;;5041801;28;20481;-80
2023/05/03 07:28:42;;;;;;;1.50;1.00;;;13.30;83.20;;;;;;5054944;28;20489;-79
2023/05/03 07:31:09;;;;;;;1.50;1.00;;;13.40;84.20;;;;;;5043387;28;20508;-82
2023/05/03 07:33:36;;;;;;;1.40;0.97;;;13.50;84.20;;;;;;5061047;28;20482;-81
2023/05/03 07:36:03;;;;;;;1.50;1.00;;;13.80;82.50;;;;;;5041505;28;20470;-81
2023/05/03 07:38:29;;;;;;;1.50;1.00;;;14.00;82.10;;;;;;5064221;28;20463;-82
2023/05/03 07:40:56;;;;;;;1.50;1.00;;;14.00;81.00;;;;;;5042551;28;20624;-81
2023/05/03 07:43:24;;;;;;;1.50;1.00;;;14.20;81.70;;;;;;5065033;28;20474;-81
2023/05/03 07:45:51;;;;;;;1.50;0.90;;;14.50;81.70;;;;;;5039615;28;20455;-80
2023/05/03 07:48:18;;;;;;;1.43;0.90;;;14.80;79.50;;;;;;5064872;28;20459;-81
2023/05/03 07:50:45;;;;;;;1.50;1.00;;;15.00;78.80;;;;;;5050417;28;20465;-79
2023/05/03 07:53:12;;;;;;;1.50;0.97;;;15.10;78.50;;;;;;5041433;28;20486;-82
2023/05/03 07:55:39;;;;;;;1.47;1.00;;;15.30;77.50;;;;;;5051612;28;20526;-84
2023/05/03 07:58:06;;;;;;;1.50;1.30;;;15.50;77.50;;;;;;5054239;28;20468;-83
2023/05/03 08:00:34;;;;;;;1.43;1.00;;;15.80;77.40;;;;;;5052984;28;20461;-82
2023/05/03 08:03:03;;;;;;;1.50;0.90;;;15.80;77.40;;;;;;5055108;28;20864;-80
2023/05/03 08:05:29;;;;;;;1.50;1.00;;;15.90;77.10;;;;;;5051186;28;20462;-80
2023/05/03 08:07:56;;;;;;;1.43;1.00;;;15.50;74.90;;;;;;5056639;28;20486;-80
2023/05/03 08:10:23;;;;;;;1.47;0.90;;;15.50;77.40;;;;;;5050999;28;20458;-82
2023/05/03 08:12:50;;;;;;;1.50;0.90;;;15.80;78.20;;;;;;5055015;28;20469;-78
2023/05/03 08:15:20;;;;;;;1.50;0.90;;;15.90;76.00;;;;;;5051224;28;20467;-84
2023/05/03 08:17:48;;;;;;;1.50;0.90;;;16.10;75.30;;;;;;5047933;28;20485;-81
2023/05/03 08:20:15;;;;;;;1.43;1.00;;;16.30;74.70;;;;;;5049970;28;20458;-83
2023/05/03 08:22:45;;;;;;;1.50;0.90;;;16.40;72.50;;;;;;5055244;28;20950;-81
2023/05/03 08:25:27;;;;;;;1.50;0.90;;;16.40;72.40;;;;;;5087316;23;21200;-83
2023/05/03 08:28:10;;;;;;;1.40;0.90;;;16.20;72.70;;;;;;4972804;28;20562;-81
2023/05/03 08:30:46;;;;;;;1.50;1.00;;;16.30;72.20;;;;;;5016874;28;20552;-83
2023/05/03 08:33:38;;;;;;;1.47;0.90;;;16.30;73.40;;;;;;5008947;28;20971;-82
2023/05/03 08:36:10;;;;;;;1.50;0.90;;;16.60;74.20;;;;;;5027548;28;20483;-81
2023/05/03 08:38:56;;;;;;;1.50;0.90;;;16.90;73.00;;;;;;5020714;28;20459;-82
2023/05/03 08:44:29;;;;;;;1.43;0.90;;;16.60;72.40;;;;;;5024833;28;20530;-79
2023/05/03 08:47:02;;;;;;;1.47;0.90;;;16.50;71.70;;;;;;5010881;28;20556;-80
2023/05/03 08:49:33;;;;;;;1.50;1.10;;;16.40;72.70;;;;;;5023758;28;20467;-82
2023/05/03 08:52:00;;;;;;;1.50;0.90;;;16.60;72.60;;;;;;5014794;28;20526;-80
2023/05/03 08:54:42;;;;;;;1.50;0.90;;;16.80;71.90;;;;;;5027680;28;20478;-82
2023/05/03 08:57:23;;;;;;;1.47;0.90;;;16.90;72.00;;;;;;5021305;27;20476;-82
2023/05/03 08:59:55;;;;;;;1.50;0.90;;;17.10;71.80;;;;;;5029814;28;20545;-83
2023/05/03 09:02:22;;;;;;;1.50;0.90;;;17.20;71.90;;;;;;5016986;28;20492;-82
2023/05/03 09:05:05;;;;;;;1.50;1.00;;;17.40;71.50;;;;;;5025457;28;20523;-83
2023/05/03 09:07:45;;;;;;;1.47;0.90;;;17.70;71.50;;;;;;5017552;28;20506;-81
2023/05/03 09:10:42;;;;;;;1.47;0.90;;;17.70;70.20;;;;;;5023370;28;20497;-82
2023/05/03 09:13:12;;;;;;;1.47;0.90;;;17.30;69.20;;;;;;5013035;28;20480;-81
2023/05/03 09:15:39;;;;;;;1.47;0.90;;;17.40;71.10;;;;;;5029347;28;20479;-83
2023/05/03 09:18:16;;;;;;;1.47;0.90;;;17.80;71.70;;;;;;5018414;28;20593;-83
2023/05/03 09:20:55;;;;;;;1.47;0.90;;;18.20;71.60;;;;;;5030827;28;20542;-83
2023/05/03 09:23:39;;;;;;;1.50;0.90;;;18.40;70.80;;;;;;5001955;28;20518;-82
2023/05/03 09:26:18;;;;;;;1.50;0.90;;;18.80;70.70;;;;;;5019094;28;20548;-83
2023/05/03 09:28:45;;;;;;;1.50;0.90;;;18.90;70.30;;;;;;5031305;28;20463;-83
2023/05/03 09:31:12;;;;;;;1.47;0.90;;;19.10;69.60;;;;;;5025899;28;20505;-82
2023/05/03 09:33:39;;;;;;;1.47;0.90;;;19.10;68.70;;;;;;5021151;28;20551;-83
2023/05/03 09:39:51;;;;;;;1.50;0.90;;;19.10;67.80;;;;;;5036140;28;20464;-83
2023/05/03 09:42:27;;;;;;;1.47;0.90;;;19.30;66.70;;;;;;5012793;28;20639;-83
2023/05/03 09:44:54;;;;;;;1.47;0.90;;;19.10;66.40;;;;;;5027483;28;20470;-81
2023/05/03 09:47:24;;;;;;;1.43;0.90;;;19.10;67.20;;;;;;5021647;28;20725;-81
2023/05/03 09:49:51;;;;;;;1.47;0.90;;;19.30;67.90;;;;;;5024839;28;20879;-82
2023/05/03 09:52:22;;;;;;;1.43;0.90;;;19.40;67.60;;;;;;5016583;28;20479;-81
2023/05/03 09:54:55;;;;;;;1.47;0.90;;;19.40;68.70;;;;;;5026138;28;20468;-82
2023/05/03 09:57:38;;;;;;;1.43;0.90;;;19.70;68.30;;;;;;5021936;28;20483;-83
2023/05/03 10:00:19;;;;;;;1.50;0.90;;;19.90;66.80;;;;;;5023938;28;20461;-82
2023/05/03 10:02:48;;;;;;;1.43;0.90;;;19.80;64.50;;;;;;5016390;28;20517;-82
2023/05/03 10:05:26;;;;;;;1.50;0.90;;;19.60;65.50;;;;;;5028180;28;20540;-82
2023/05/03 10:08:04;;;;;;;1.47;0.90;;;19.50;66.00;;;;;;5012729;28;20471;-82
2023/05/03 10:10:35;;;;;;;1.43;0.90;;;19.40;67.00;;;;;;5027134;28;20459;-82
2023/05/03 10:13:03;;;;;;;1.50;0.90;;;19.50;67.20;;;;;;5014175;28;20479;-81
2023/05/03 10:15:36;;;;;;;1.47;0.90;;;19.70;66.60;;;;;;5026503;28;20505;-80
2023/05/03 10:18:07;;;;;;;1.47;0.90;;;19.70;65.80;;;;;;5018495;28;20487;-80
2023/05/03 10:20:38;;;;;;;1.47;0.90;;;20.00;67.40;;;;;;5026551;28;20994;-80
2023/05/03 10:23:11;;;;;;;1.50;0.90;;;20.10;65.20;;;;;;5024365;27;20490;-80
2023/05/03 10:25:40;;;;;;;1.47;0.90;;;20.10;66.60;;;;;;5026186;28;20913;-79
2023/05/03 10:28:08;;;;;;;1.50;0.90;;;20.20;67.40;;;;;;5035349;27;20485;-79
2023/05/03 10:30:41;;;;;;;1.50;0.90;;;20.50;65.90;;;;;;5026706;28;20460;-80
2023/05/03 10:33:33;;;;;;;1.47;0.90;;;20.50;66.50;;;;;;5017215;27;20492;-81
2023/05/03 10:36:05;;;;;;;1.47;0.90;;;20.70;65.10;;;;;;5014913;28;21064;-79
2023/05/03 10:38:40;;;;;;;1.50;0.90;;;21.00;67.80;;;;;;5024736;28;20542;-82
2023/05/03 10:41:07;;;;;;;1.50;0.87;;;20.80;61.70;;;;;;5019918;28;20879;-81
2023/05/03 10:44:07;;;;;;;2.60;2.40;;;20.70;63.60;;;;;;5024788;28;20481;-80
2023/05/03 10:46:35;;;;;;;1.50;0.90;;;20.90;64.50;;;;;;5014880;28;20544;-81
2023/05/03 10:49:44;;;;;;;1.47;0.90;;;21.30;66.20;;;;;;5026868;28;20556;-81
2023/05/03 10:52:45;;;;;;;1.43;0.90;;;21.00;61.60;;;;;;5031284;28;20475;-83
2023/05/03 10:55:19;;;;;;;1.47;0.90;;;21.00;63.00;;;;;;5029253;28;20483;-82
2023/05/03 10:57:57;;;;;;;1.50;1.10;;;21.20;64.10;;;;;;5020557;28;20522;-80
2023/05/03 11:00:31;;;;;;;1.47;0.90;;;21.40;62.20;;;;;;5028861;28;20467;-82
2023/05/03 11:03:30;;;;;;;1.47;0.80;;;21.60;64.30;;;;;;5015628;28;20548;-80
2023/05/03 11:05:58;;;;;;;1.50;0.87;;;21.90;61.20;;;;;;5016112;28;20506;-82
2023/05/03 11:08:26;;;;;;;1.47;0.80;;;21.90;62.70;;;;;;5022178;28;20479;-80
2023/05/03 11:11:08;;;;;;;1.40;0.90;;;22.20;62.10;;;;;;5014888;28;20471;-82
2023/05/03 11:13:35;;;;;;;1.43;0.90;;;22.40;61.30;;;;;;5027677;28;20463;-81
2023/05/03 11:16:03;;;;;;;1.50;0.80;;;22.50;62.00;;;;;;5018991;28;20547;-79
2023/05/03 11:18:31;;;;;;;1.47;0.90;;;22.70;61.70;;;;;;5016562;28;20524;-81
2023/05/03 11:20:58;;;;;;;1.47;0.90;;;22.80;62.50;;;;;;5015593;28;20460;-79
2023/05/03 11:23:28;;;;;;;1.50;0.80;;;23.10;61.30;;;;;;5017891;28;20622;-80
2023/05/03 11:25:56;;;;;;;1.47;0.90;;;23.00;59.30;;;;;;5011615;28;20517;-79
2023/05/03 11:28:28;;;;;;;1.47;0.80;;;22.80;61.00;;;;;;5023020;28;20764;-79
2023/05/03 11:30:55;;;;;;;1.50;0.90;;;22.90;60.80;;;;;;5010907;28;20456;-78
2023/05/03 11:33:22;;;;;;;1.50;0.90;;;22.60;60.10;;;;;;5019247;28;20997;-79
2023/05/03 11:35:49;;;;;;;1.50;0.87;;;22.30;61.50;;;;;;5013690;28;20475;-82
2023/05/03 11:38:16;;;;;;;1.47;0.90;;;22.00;61.00;;;;;;5030512;28;20543;-81
2023/05/03 11:40:43;;;;;;;1.43;0.80;;;22.10;62.50;;;;;;5025414;28;20554;-78
2023/05/03 11:43:10;;;;;;;1.50;0.83;;;22.20;63.10;;;;;;5017327;28;20475;-81
2023/05/03 11:45:42;;;;;;;1.50;0.90;;;22.40;62.20;;;;;;5025816;28;20487;-79
2023/05/03 11:48:11;;;;;;;1.40;0.90;;;22.60;61.90;;;;;;5014103;28;20954;-79
2023/05/03 11:50:45;;;;;;;1.47;0.90;;;22.70;60.90;;;;;;5024621;28;20554;-79
2023/05/03 11:53:13;;;;;;;1.50;0.90;;;22.40;59.40;;;;;;4998766;28;20883;-82
2023/05/03 11:55:42;;;;;;;1.50;0.90;;;22.30;60.00;;;;;;5020107;28;20512;-81
2023/05/03 11:58:12;;;;;;;1.50;0.90;;;22.20;60.30;;;;;;5011689;28;20483;-80
2023/05/03 12:00:43;;;;;;;1.47;0.90;;;22.20;59.50;;;;;;5023226;28;20537;-79
2023/05/03 12:03:18;;;;;;;1.50;1.00;;;21.90;59.50;;;;;;5014705;28;20475;-81
2023/05/03 12:05:49;;;;;;;1.40;0.80;;;21.70;59.40;;;;;;5019467;28;20555;-80
2023/05/03 12:08:20;;;;;;;1.50;0.90;;;21.70;60.20;;;;;;4999182;28;20586;-79
2023/05/03 12:10:47;;;;;;;1.40;0.90;;;22.20;62.50;;;;;;5017508;28;20464;-81
2023/05/03 12:13:15;;;;;;;1.40;0.83;;;22.40;60.80;;;;;;5020826;28;20476;-80
2023/05/03 12:15:44;;;;;;;1.50;0.90;;;22.50;60.90;;;;;;5022312;28;21156;-80
2023/05/03 12:18:12;;;;;;;1.47;0.80;;;22.50;61.00;;;;;;5002451;28;20483;-80
2023/05/03 12:20:40;;;;;;;1.47;0.83;;;22.70;60.90;;;;;;5024957;28;20477;-79
2023/05/03 12:23:08;;;;;;;1.50;0.90;;;22.90;59.80;;;;;;5006055;28;20566;-81
2023/05/03 12:25:36;;;;;;;1.43;0.90;;;23.00;60.10;;;;;;5019080;28;20491;-81
2023/05/03 12:28:04;;;;;;;1.50;0.90;;;23.20;58.80;;;;;;5009562;28;20485;-80
2023/05/03 12:30:32;;;;;;;1.43;0.90;;;23.30;57.80;;;;;;5023464;28;20531;-79
2023/05/03 12:33:00;;;;;;;1.40;0.87;;;23.50;60.20;;;;;;5010896;28;20703;-80
2023/05/03 12:35:27;;;;;;;1.43;0.80;;;23.00;56.80;;;;;;5025146;28;20517;-80
2023/05/03 12:38:01;;;;;;;1.50;0.90;;;22.90;58.80;;;;;;5020600;28;20561;-81
2023/05/03 12:40:28;;;;;;;1.40;0.90;;;23.10;61.20;;;;;;5027459;28;20546;-79
2023/05/03 12:43:05;;;;;;;1.40;0.90;;;23.30;58.40;;;;;;5015154;28;20493;-80
2023/05/03 12:45:31;;;;;;;1.47;0.90;;;23.50;60.40;;;;;;5023489;28;20509;-79
2023/05/03 12:48:00;;;;;;;1.50;0.83;;;23.70;60.50;;;;;;5012507;27;20933;-80
2023/05/03 12:50:30;;;;;;;1.40;0.80;;;23.60;58.30;;;;;;5023688;28;20468;-79
2023/05/03 12:52:57;;;;;;;1.50;0.80;;;23.00;55.90;;;;;;5011335;28;20486;-81
2023/05/03 12:55:25;;;;;;;1.40;0.90;;;22.90;58.80;;;;;;5024896;28;20479;-80
2023/05/03 12:57:52;;;;;;;1.50;1.00;;;22.60;59.60;;;;;;5015351;28;20483;-79
2023/05/03 13:00:20;;;;;;;1.47;0.90;;;22.60;63.60;;;;;;5028000;28;20463;-79
2023/05/03 13:02:48;;;;;;;1.47;0.80;;;22.70;63.70;;;;;;5008014;28;20483;-79
2023/05/03 13:05:16;;;;;;;1.50;0.90;;;22.80;60.40;;;;;;5027764;28;21321;-80
2023/05/03 13:07:43;;;;;;;1.50;0.80;;;23.10;63.60;;;;;;5014752;28;20921;-79
2023/05/03 13:10:10;;;;;;;1.43;0.90;;;23.40;62.80;;;;;;5023952;28;20455;-79